Elettra — H9AK — position and weather

sailwx.info

Track history (hours):
 
Tides and Currents Weather Stations Pressure Air Temp Water Temp Dewpoint Dewpoint Depression Visibility Wind Speed Wind Dir Waves Ship Positions

Elettra

Last reported at 2015-Jul-05 22:33 UTC. Time now 2015-Jul-05 23:20 UTC.
Position S 33°05' E 152°27'.

Length 254 m; draft 7.7 m.

Type: Cargo ship. MMSI: 371188000.

Date/timePositionNaut miles runAvg speedWind from/ knotsBaromVisibWave heightAir tempDewpointWater temp
2015-Jul-05 22:33S 33°05' E 152°27'1 1.3
2015-Jul-05 21:31S 33°03' E 152°27'2 2.2
2015-Jul-05 20:31S 33°03' E 152°25'3 1.9
2015-Jul-05 19:07S 33°02' E 152°22'1 1.8
2015-Jul-05 18:31S 33°02' E 152°20'2 1.7
2015-Jul-05 17:31S 33°02' E 152°18'1 1.3
2015-Jul-05 16:28S 33°02' E 152°17'1 0.9
2015-Jul-05 15:31S 33°03' E 152°16'2 1.6
2015-Jul-05 14:33S 33°02' E 152°14'9 9.4
2015-Jul-05 13:33S 32°58' E 152°04'3 3.4
2015-Jul-05 12:33S 32°56' E 152°06'1211.5
2015-Jul-05 11:33S 32°53' E 152°20'1111.4
2015-Jul-05 10:33S 32°47' E 152°31'1212.0
2015-Jul-05 09:33S 32°41' E 152°43'1212.1
2015-Jul-05 08:33S 32°29' E 152°48'28511.7
2015-Jul-04 08:09S 27°49' E 153°52'811.7
2015-Jul-04 07:30S 27°42' E 153°52'1111.6
2015-Jul-04 06:32S 27°30' E 153°52'2711.6
2015-Jul-04 04:14S 27°04' E 153°52'2111.4
2015-Jul-04 02:22S 26°43' E 153°54'  
Track history (hours):
 
Tides and Currents Weather Stations Pressure Air Temp Water Temp Dewpoint Dewpoint Depression Visibility Wind Speed Wind Dir Waves Ship Positions

Elettra

Last reported at 2015-Jul-05 22:33 UTC. Time now 2015-Jul-05 23:20 UTC.
Position S 33°05' E 152°27'.

Length 254 m; draft 7.7 m.

Type: Cargo ship. MMSI: 371188000.

Date/timePositionNaut miles runAvg speedWind from/ knotsBaromVisibWave heightAir tempDewpointWater temp
2015-Jul-05 22:33S 33°05' E 152°27'1 1.3
2015-Jul-05 21:31S 33°03' E 152°27'2 2.2
2015-Jul-05 20:31S 33°03' E 152°25'3 1.9
2015-Jul-05 19:07S 33°02' E 152°22'1 1.8
2015-Jul-05 18:31S 33°02' E 152°20'2 1.7
2015-Jul-05 17:31S 33°02' E 152°18'1 1.3
2015-Jul-05 16:28S 33°02' E 152°17'1 0.9
2015-Jul-05 15:31S 33°03' E 152°16'2 1.6
2015-Jul-05 14:33S 33°02' E 152°14'9 9.4
2015-Jul-05 13:33S 32°58' E 152°04'3 3.4
2015-Jul-05 12:33S 32°56' E 152°06'1211.5
2015-Jul-05 11:33S 32°53' E 152°20'1111.4
2015-Jul-05 10:33S 32°47' E 152°31'1212.0
2015-Jul-05 09:33S 32°41' E 152°43'1212.1
2015-Jul-05 08:33S 32°29' E 152°48'28511.7
2015-Jul-04 08:09S 27°49' E 153°52'811.7
2015-Jul-04 07:30S 27°42' E 153°52'1111.6
2015-Jul-04 06:32S 27°30' E 153°52'2711.6
2015-Jul-04 04:14S 27°04' E 153°52'2111.4
2015-Jul-04 02:22S 26°43' E 153°54'  

Dump ship's entire track history